Station History

Weather Underground - logo

Station Historical Data
Daily Summary for September 20, 2017 Units:  English    Metric   Both
« Previous Day
Next Day »
Daily Weekly Monthly Yearly Custom
  High: Low: Average:
Temperature: 82.8 °F 51.8 °F 67.4 °F
Dew Point: 57.5 °F 47.8 °F 51.9 °F
Humidity: 87 % 33 % 61 %
Wind Speed: 8.1 mph 0.0 mph 1.1 mph
Wind Gust: 6.9 mph - -
Wind:- - SSW
Pressure: 29.93 in 29.74 in -
Precipitation: 0.00 in    
Historical Graphs
 
 
Tabular Data for September 20, 2017
Time Temperature Dew Point Pressure Wind Wind Speed Wind Gust Humidity Rainfall Rate (Hourly)
00:03 59.7 °F 51.0 °F 29.90 in Calm     73 % 0.00 in
00:08 59.5 °F 50.8 °F 29.90 in Calm     73 % 0.00 in
00:13 59.4 °F 50.7 °F 29.90 in Calm     73 % 0.00 in
00:18 59.3 °F 50.6 °F 29.90 in Calm     73 % 0.00 in
00:23 59.3 °F 51.0 °F 29.90 in Calm     74 % 0.00 in
00:28 59.2 °F 50.9 °F 29.90 in Calm     74 % 0.00 in
00:33 59.0 °F 50.7 °F 29.90 in Calm     74 % 0.00 in
00:38 58.9 °F 51.3 °F 29.90 in Calm     76 % 0.00 in
00:43 58.8 °F 51.2 °F 29.90 in Calm     76 % 0.00 in
00:48 58.6 °F 50.7 °F 29.90 in Calm     75 % 0.00 in
00:53 58.6 °F 51.1 °F 29.90 in Calm     76 % 0.00 in
00:58 58.4 °F 50.9 °F 29.90 in Calm     76 % 0.00 in
01:03 58.1 °F 50.6 °F 29.90 in Calm     76 % 0.00 in
01:08 57.9 °F 50.7 °F 29.90 in Calm     77 % 0.00 in
01:13 57.7 °F 50.5 °F 29.90 in Calm     77 % 0.00 in
01:18 57.6 °F 50.8 °F 29.90 in Calm     78 % 0.00 in
01:23 57.8 °F 50.6 °F 29.90 in SE 1.2 mph 1.2 mph 77 % 0.00 in
01:28 58.1 °F 50.9 °F 29.90 in Calm     77 % 0.00 in
01:33 58.2 °F 50.7 °F 29.90 in Calm     76 % 0.00 in
01:38 58.2 °F 51.0 °F 29.90 in Calm     77 % 0.00 in
01:43 58.0 °F 51.2 °F 29.90 in Calm     78 % 0.00 in
01:48 57.8 °F 51.3 °F 29.90 in Calm     79 % 0.00 in
01:53 57.5 °F 50.7 °F 29.90 in Calm     78 % 0.00 in
01:58 57.4 °F 50.9 °F 29.90 in Calm     79 % 0.00 in
02:00 57.4 °F 50.9 °F 29.90 in Calm     79 % 0.00 in
02:05 57.3 °F 50.5 °F 29.90 in SE 8.1 mph   78 % 0.00 in
02:10 57.6 °F 50.4 °F 29.90 in Calm     77 % 0.00 in
02:15 57.8 °F 51.0 °F 29.90 in Calm     78 % 0.00 in
02:20 57.7 °F 51.2 °F 29.90 in Calm     79 % 0.00 in
02:25 57.5 °F 51.4 °F 29.90 in Calm     80 % 0.00 in
02:30 57.2 °F 51.1 °F 29.90 in Calm     80 % 0.00 in
02:35 56.9 °F 51.5 °F 29.90 in Calm     82 % 0.00 in
02:40 56.6 °F 51.5 °F 29.90 in Calm     83 % 0.00 in
02:45 56.5 °F 51.4 °F 29.90 in Calm     83 % 0.00 in
02:50 56.4 °F 51.3 °F 29.90 in Calm     83 % 0.00 in
02:55 56.3 °F 51.2 °F 29.90 in Calm     83 % 0.00 in
03:00 56.3 °F 51.2 °F 29.90 in Calm     83 % 0.00 in
03:05 56.8 °F 50.7 °F 29.90 in Calm     80 % 0.00 in
03:10 57.3 °F 50.5 °F 29.90 in Calm     78 % 0.00 in
03:15 57.6 °F 50.4 °F 29.90 in Calm     77 % 0.00 in
03:20 57.5 °F 50.0 °F 29.90 in Calm     76 % 0.00 in
03:25 57.2 °F 50.1 °F 29.91 in Calm     77 % 0.00 in
03:30 56.6 °F 49.8 °F 29.90 in Calm     78 % 0.00 in
03:36 56.1 °F 50.0 °F 29.90 in Calm     80 % 0.00 in
03:41 55.7 °F 50.3 °F 29.91 in Calm     82 % 0.00 in
03:46 55.4 °F 50.0 °F 29.91 in Calm     82 % 0.00 in
03:51 55.3 °F 49.9 °F 29.91 in Calm     82 % 0.00 in
03:56 55.2 °F 49.5 °F 29.91 in Calm     81 % 0.00 in
04:01 55.1 °F 49.4 °F 29.91 in Calm     81 % 0.00 in
04:06 55.0 °F 49.3 °F 29.91 in Calm     81 % 0.00 in
04:11 54.9 °F 49.2 °F 29.91 in Calm     81 % 0.00 in
04:16 54.7 °F 49.3 °F 29.91 in Calm     82 % 0.00 in
04:21 54.6 °F 48.9 °F 29.91 in Calm     81 % 0.00 in
04:26 54.6 °F 49.5 °F 29.91 in Calm     83 % 0.00 in
04:31 54.5 °F 49.4 °F 29.91 in Calm     83 % 0.00 in
04:36 54.4 °F 49.3 °F 29.91 in Calm     83 % 0.00 in
04:41 54.2 °F 49.1 °F 29.91 in Calm     83 % 0.00 in
04:46 53.9 °F 48.9 °F 29.91 in Calm     83 % 0.00 in
04:51 53.7 °F 49.0 °F 29.91 in Calm     84 % 0.00 in
04:56 53.6 °F 48.9 °F 29.91 in Calm     84 % 0.00 in
05:01 53.6 °F 48.6 °F 29.91 in Calm     83 % 0.00 in
05:06 53.6 °F 48.9 °F 29.90 in Calm     84 % 0.00 in
05:11 53.5 °F 48.8 °F 29.90 in SE 1.2 mph 1.2 mph 84 % 0.00 in
05:16 53.2 °F 48.5 °F 29.90 in Calm     84 % 0.00 in
05:21 53.0 °F 48.6 °F 29.90 in Calm     85 % 0.00 in
05:26 52.8 °F 48.4 °F 29.90 in Calm     85 % 0.00 in
05:31 52.8 °F 48.4 °F 29.90 in Calm     85 % 0.00 in
05:36 52.9 °F 48.5 °F 29.90 in SE 1.2 mph   85 % 0.00 in
05:41 53.1 °F 48.4 °F 29.90 in Calm     84 % 0.00 in
05:46 53.2 °F 48.5 °F 29.90 in Calm     84 % 0.00 in
05:56 53.1 °F 48.1 °F 29.90 in Calm     83 % 0.00 in
06:01 53.1 °F 48.1 °F 29.90 in Calm     83 % 0.00 in
06:06 53.1 °F 48.4 °F 29.90 in Calm     84 % 0.00 in
06:11 53.1 °F 48.4 °F 29.90 in Calm     84 % 0.00 in
06:16 52.9 °F 48.2 °F 29.90 in Calm     84 % 0.00 in
06:21 52.7 °F 48.0 °F 29.91 in Calm     84 % 0.00 in
06:26 52.6 °F 48.2 °F 29.91 in Calm     85 % 0.00 in
06:31 52.5 °F 48.1 °F 29.91 in Calm     85 % 0.00 in
06:36 52.4 °F 48.3 °F 29.91 in Calm     86 % 0.00 in
06:41 52.3 °F 48.5 °F 29.91 in Calm     87 % 0.00 in
06:46 52.2 °F 48.4 °F 29.91 in Calm     87 % 0.00 in
06:51 52.1 °F 48.3 °F 29.91 in Calm     87 % 0.00 in
06:56 52.0 °F 47.9 °F 29.91 in Calm     86 % 0.00 in
07:01 51.9 °F 47.8 °F 29.91 in Calm     86 % 0.00 in
07:06 51.8 °F 48.1 °F 29.91 in Calm     87 % 0.00 in
07:11 51.8 °F 48.1 °F 29.91 in Calm     87 % 0.00 in
07:16 51.9 °F 47.8 °F 29.92 in Calm     86 % 0.00 in
07:21 52.1 °F 48.3 °F 29.92 in Calm     87 % 0.00 in
07:26 52.4 °F 48.6 °F 29.92 in Calm     87 % 0.00 in
07:31 52.6 °F 48.8 °F 29.92 in Calm   0.1 mph 87 % 0.00 in
07:36 53.2 °F 48.8 °F 29.92 in SE 1.2 mph   85 % 0.00 in
07:46 54.5 °F 49.1 °F 29.93 in SE 1.2 mph 1.2 mph 82 % 0.00 in
07:51 55.0 °F 48.9 °F 29.93 in SE 1.2 mph 1.2 mph 80 % 0.00 in
07:56 55.6 °F 49.2 °F 29.93 in SE 1.2 mph 1.2 mph 79 % 0.00 in
08:01 56.5 °F 49.4 °F 29.93 in SE 2.3 mph   77 % 0.00 in
08:06 57.8 °F 49.9 °F 29.93 in SE 2.3 mph 2.3 mph 75 % 0.00 in
08:12 58.7 °F 50.1 °F 29.93 in ESE 2.3 mph   73 % 0.00 in
08:17 59.4 °F 50.0 °F 29.93 in ESE 2.3 mph 2.3 mph 71 % 0.00 in
08:22 60.4 °F 50.6 °F 29.93 in Calm   0.1 mph 70 % 0.00 in
08:27 61.3 °F 50.6 °F 29.93 in ESE 1.2 mph 1.2 mph 68 % 0.00 in
08:32 62.1 °F 51.0 °F 29.93 in ESE 1.2 mph 1.2 mph 67 % 0.00 in
08:41 63.2 °F 51.2 °F 29.93 in ESE 1.2 mph 1.2 mph 65 % 0.00 in
08:46 64.0 °F 51.6 °F 29.93 in SSE 2.3 mph 2.3 mph 64 % 0.00 in
08:51 64.0 °F 51.1 °F 29.93 in ENE 2.3 mph 2.3 mph 63 % 0.00 in
08:56 64.5 °F 51.6 °F 29.93 in ENE 2.3 mph 2.3 mph 63 % 0.00 in
09:01 64.6 °F 51.3 °F 29.93 in East 2.3 mph 2.3 mph 62 % 0.00 in
09:06 65.0 °F 51.7 °F 29.93 in SSE 2.3 mph 2.3 mph 62 % 0.00 in
09:11 65.6 °F 51.8 °F 29.93 in SE 3.5 mph 3.5 mph 61 % 0.00 in
09:16 66.1 °F 52.3 °F 29.93 in ENE 1.2 mph 1.2 mph 61 % 0.00 in
09:21 66.4 °F 52.5 °F 29.93 in SSE 2.3 mph 2.3 mph 61 % 0.00 in
09:23 66.4 °F 52.1 °F 29.93 in ESE 2.3 mph 2.3 mph 60 % 0.00 in
09:28 66.6 °F 52.3 °F 29.92 in SSW 5.0 mph 5.0 mph 60 % 0.00 in
09:33 66.8 °F 52.0 °F 29.92 in East 1.2 mph   59 % 0.00 in
09:38 67.3 °F 52.5 °F 29.92 in East 1.2 mph   59 % 0.00 in
09:43 67.6 °F 52.8 °F 29.92 in North 1.2 mph 1.2 mph 59 % 0.00 in
09:48 67.9 °F 52.6 °F 29.92 in ENE 2.3 mph 2.3 mph 58 % 0.00 in
09:53 68.6 °F 53.7 °F 29.92 in South 1.2 mph 1.2 mph 59 % 0.00 in
09:58 69.1 °F 53.2 °F 29.92 in East 2.0 mph 2.0 mph 57 % 0.00 in
10:03 69.1 °F 52.2 °F 29.92 in SSW 3.5 mph 3.5 mph 55 % 0.00 in
10:08 69.2 °F 52.8 °F 29.92 in SSE 3.5 mph 3.5 mph 56 % 0.00 in
10:13 69.7 °F 53.3 °F 29.92 in SE 3.5 mph 3.5 mph 56 % 0.00 in
10:18 70.1 °F 53.2 °F 29.92 in South 5.8 mph 5.8 mph 55 % 0.00 in
10:23 70.5 °F 53.6 °F 29.92 in SE 3.5 mph 3.5 mph 55 % 0.00 in
10:28 70.5 °F 53.6 °F 29.92 in East 2.3 mph 2.3 mph 55 % 0.00 in
10:33 70.9 °F 53.9 °F 29.91 in East 3.5 mph 3.5 mph 55 % 0.00 in
10:38 71.0 °F 53.0 °F 29.91 in SSE 5.0 mph 5.0 mph 53 % 0.00 in
10:43 71.1 °F 54.1 °F 29.91 in NNW 3.0 mph 3.0 mph 55 % 0.00 in
10:48 71.7 °F 54.2 °F 29.91 in SE 1.2 mph 1.2 mph 54 % 0.00 in
10:53 72.3 °F 54.2 °F 29.91 in ENE 1.2 mph 1.2 mph 53 % 0.00 in
10:58 73.0 °F 54.3 °F 29.91 in ESE 3.5 mph 3.5 mph 52 % 0.00 in
11:03 73.5 °F 54.3 °F 29.91 in SSE 4.6 mph 4.6 mph 51 % 0.00 in
11:08 73.4 °F 53.6 °F 29.91 in SSE 4.0 mph 4.0 mph 50 % 0.00 in
11:13 73.5 °F 53.7 °F 29.90 in East 3.5 mph 3.5 mph 50 % 0.00 in
11:18 73.6 °F 53.3 °F 29.90 in East 3.5 mph 3.5 mph 49 % 0.00 in
11:23 73.7 °F 53.3 °F 29.90 in NNE 3.5 mph 3.5 mph 49 % 0.00 in
11:28 74.2 °F 53.2 °F 29.90 in NW 3.5 mph 3.5 mph 48 % 0.00 in
11:33 74.6 °F 53.6 °F 29.90 in NW 2.3 mph 2.3 mph 48 % 0.00 in
11:38 74.8 °F 52.6 °F 29.90 in SSW 2.3 mph 2.3 mph 46 % 0.00 in
11:43 74.8 °F 52.0 °F 29.89 in East 2.3 mph 2.3 mph 45 % 0.00 in
11:48 74.9 °F 52.7 °F 29.89 in SSE 3.5 mph 3.5 mph 46 % 0.00 in
11:53 75.3 °F 52.5 °F 29.89 in SSE 1.2 mph 1.2 mph 45 % 0.00 in
11:58 75.7 °F 52.8 °F 29.89 in ESE 3.5 mph 3.5 mph 45 % 0.00 in
12:03 75.6 °F 53.4 °F 29.89 in SW 2.3 mph 2.3 mph 46 % 0.00 in
12:08 76.1 °F 53.2 °F 29.89 in SSE 2.0 mph 2.0 mph 45 % 0.00 in
12:13 76.3 °F 52.2 °F 29.88 in SSW 3.0 mph 3.0 mph 43 % 0.00 in
12:18 76.7 °F 51.9 °F 29.88 in SSW 3.5 mph 3.5 mph 42 % 0.00 in
12:23 77.0 °F 52.1 °F 29.88 in ENE 2.3 mph   42 % 0.00 in
12:28 77.6 °F 54.0 °F 29.87 in South 3.5 mph 3.5 mph 44 % 0.00 in
12:33 78.0 °F 52.4 °F 29.87 in SE 2.3 mph 2.3 mph 41 % 0.00 in
12:38 78.1 °F 51.8 °F 29.87 in South 3.5 mph 3.5 mph 40 % 0.00 in
12:43 78.3 °F 52.0 °F 29.87 in ENE 3.5 mph 3.5 mph 40 % 0.00 in
12:48 78.5 °F 52.2 °F 29.87 in SSE 6.9 mph 6.9 mph 40 % 0.00 in
12:53 78.6 °F 51.6 °F 29.86 in SE 2.3 mph 2.3 mph 39 % 0.00 in
12:58 78.6 °F 53.6 °F 29.86 in ENE 3.0 mph 3.0 mph 42 % 0.00 in
13:04 79.0 °F 51.9 °F 29.86 in South 3.5 mph 3.5 mph 39 % 0.00 in
13:09 79.3 °F 51.5 °F 29.85 in South 3.5 mph 3.5 mph 38 % 0.00 in
13:14 79.2 °F 52.1 °F 29.85 in ESE 2.3 mph 2.3 mph 39 % 0.00 in
13:19 79.5 °F 54.4 °F 29.85 in South 2.3 mph 2.3 mph 42 % 0.00 in
13:24 79.6 °F 52.5 °F 29.85 in SE 2.3 mph 2.3 mph 39 % 0.00 in
13:29 79.7 °F 51.8 °F 29.85 in West 2.3 mph 2.3 mph 38 % 0.00 in
13:34 79.3 °F 51.5 °F 29.84 in SSW 1.2 mph 1.2 mph 38 % 0.00 in
13:39 79.9 °F 52.0 °F 29.84 in SE 4.6 mph 4.6 mph 38 % 0.00 in
13:44 80.2 °F 53.0 °F 29.84 in South 1.2 mph 1.2 mph 39 % 0.00 in
13:49 80.6 °F 54.7 °F 29.83 in SE 2.3 mph 2.3 mph 41 % 0.00 in
13:54 80.7 °F 51.3 °F 29.83 in WNW 3.5 mph 3.5 mph 36 % 0.00 in
13:59 79.8 °F 51.9 °F 29.83 in WSW 2.3 mph 2.3 mph 38 % 0.00 in
14:04 79.9 °F 52.7 °F 29.83 in SE 3.5 mph 3.5 mph 39 % 0.00 in
14:09 80.7 °F 51.3 °F 29.83 in West 1.2 mph 1.2 mph 36 % 0.00 in
14:14 81.4 °F 51.9 °F 29.82 in East 2.3 mph 2.3 mph 36 % 0.00 in
14:19 82.0 °F 52.4 °F 29.82 in ESE 1.2 mph 1.2 mph 36 % 0.00 in
14:24 81.5 °F 50.4 °F 29.82 in West 3.5 mph 3.5 mph 34 % 0.00 in
14:29 81.0 °F 49.2 °F 29.82 in NW 2.3 mph 2.3 mph 33 % 0.00 in
14:34 80.8 °F 51.4 °F 29.82 in NW 1.2 mph   36 % 0.00 in
14:39 81.2 °F 49.4 °F 29.82 in NW 2.3 mph 2.3 mph 33 % 0.00 in
14:44 81.1 °F 50.1 °F 29.81 in WNW 2.3 mph 2.3 mph 34 % 0.00 in
14:49 80.8 °F 50.6 °F 29.81 in NW 2.3 mph 2.3 mph 35 % 0.00 in
14:54 81.1 °F 50.1 °F 29.81 in WNW 1.2 mph 1.2 mph 34 % 0.00 in
14:59 81.2 °F 51.7 °F 29.81 in SW 2.3 mph 2.3 mph 36 % 0.00 in
15:04 81.3 °F 51.8 °F 29.80 in WNW 2.3 mph 2.3 mph 36 % 0.00 in
15:09 81.6 °F 51.3 °F 29.80 in WNW 2.3 mph 2.3 mph 35 % 0.00 in
15:14 81.2 °F 50.9 °F 29.80 in Calm     35 % 0.00 in
15:19 81.6 °F 52.1 °F 29.80 in NNW 2.3 mph 2.3 mph 36 % 0.00 in
15:24 81.9 °F 51.6 °F 29.80 in East 2.3 mph 2.3 mph 35 % 0.00 in
15:29 82.2 °F 50.2 °F 29.79 in NW 2.3 mph   33 % 0.00 in
15:34 82.0 °F 50.9 °F 29.79 in North 3.5 mph 3.5 mph 34 % 0.00 in
15:39 81.8 °F 51.5 °F 29.79 in WNW 2.3 mph 2.3 mph 35 % 0.00 in
15:44 82.1 °F 52.5 °F 29.79 in NNW 1.2 mph   36 % 0.00 in
15:49 82.5 °F 52.1 °F 29.79 in South 1.2 mph   35 % 0.00 in
15:50 82.5 °F 52.1 °F 29.79 in SSE 2.0 mph 2.0 mph 35 % 0.00 in
15:55 82.8 °F 52.3 °F 29.78 in NNE 2.3 mph 2.3 mph 35 % 0.00 in
16:00 82.8 °F 51.6 °F 29.78 in NW 1.2 mph 1.2 mph 34 % 0.00 in
16:05 82.4 °F 50.4 °F 29.78 in WNW 1.2 mph 1.2 mph 33 % 0.00 in
16:10 81.9 °F 50.8 °F 29.78 in Calm     34 % 0.00 in
16:15 81.7 °F 51.4 °F 29.78 in NW 3.5 mph 3.5 mph 35 % 0.00 in
16:20 81.2 °F 51.7 °F 29.77 in NW 2.0 mph 2.0 mph 36 % 0.00 in
16:25 81.0 °F 50.8 °F 29.77 in WSW 2.3 mph 2.3 mph 35 % 0.00 in
16:30 81.4 °F 52.6 °F 29.77 in NNW 3.5 mph 3.5 mph 37 % 0.00 in
16:35 81.1 °F 50.9 °F 29.77 in NW 2.3 mph 2.3 mph 35 % 0.00 in
16:40 81.0 °F 50.8 °F 29.77 in Calm     35 % 0.00 in
16:45 81.1 °F 51.6 °F 29.77 in NNW 2.3 mph 2.3 mph 36 % 0.00 in
16:50 81.4 °F 51.1 °F 29.77 in WNW 1.2 mph 1.2 mph 35 % 0.00 in
16:55 81.6 °F 52.1 °F 29.77 in NW 2.3 mph 2.3 mph 36 % 0.00 in
17:00 81.8 °F 52.2 °F 29.77 in WNW 1.2 mph 1.2 mph 36 % 0.00 in
17:05 81.6 °F 52.1 °F 29.77 in NW 3.0 mph 3.0 mph 36 % 0.00 in
17:10 81.6 °F 50.5 °F 29.76 in NW 3.5 mph 3.5 mph 34 % 0.00 in
17:15 81.0 °F 50.8 °F 29.76 in WSW 2.3 mph 2.3 mph 35 % 0.00 in
17:20 80.5 °F 51.1 °F 29.76 in WNW 1.2 mph 1.2 mph 36 % 0.00 in
17:25 80.4 °F 51.0 °F 29.76 in NW 1.2 mph 1.2 mph 36 % 0.00 in
17:30 80.2 °F 50.8 °F 29.76 in NW 2.3 mph 2.3 mph 36 % 0.00 in
17:35 80.0 °F 50.6 °F 29.76 in NNW 1.2 mph 1.2 mph 36 % 0.00 in
17:40 79.8 °F 51.2 °F 29.76 in NNW 2.3 mph 2.3 mph 37 % 0.00 in
17:45 79.7 °F 51.1 °F 29.76 in NW 1.2 mph 1.2 mph 37 % 0.00 in
17:50 79.6 °F 51.8 °F 29.76 in West 1.2 mph 1.2 mph 38 % 0.00 in
17:55 79.4 °F 51.6 °F 29.76 in WNW 1.2 mph 1.2 mph 38 % 0.00 in
18:00 79.3 °F 52.2 °F 29.75 in NNW 1.2 mph   39 % 0.00 in
18:05 79.2 °F 52.1 °F 29.75 in NNW 1.2 mph   39 % 0.00 in
18:10 79.0 °F 51.9 °F 29.75 in NW 1.2 mph 1.2 mph 39 % 0.00 in
18:15 78.8 °F 51.0 °F 29.75 in WNW 1.2 mph 1.2 mph 38 % 0.00 in
18:20 78.6 °F 51.6 °F 29.75 in NNE 2.3 mph 2.3 mph 39 % 0.00 in
18:25 78.3 °F 51.3 °F 29.75 in NW 1.2 mph   39 % 0.00 in
18:30 78.2 °F 51.2 °F 29.75 in WNW 1.2 mph   39 % 0.00 in
18:35 77.9 °F 51.6 °F 29.75 in NNW 1.0 mph   40 % 0.00 in
18:41 77.5 °F 51.9 °F 29.75 in NNW 1.2 mph   41 % 0.00 in
18:46 77.2 °F 51.7 °F 29.74 in Calm     41 % 0.00 in
18:51 76.8 °F 53.2 °F 29.74 in Calm     44 % 0.00 in
18:56 76.2 °F 52.7 °F 29.74 in Calm     44 % 0.00 in
19:01 75.6 °F 52.1 °F 29.75 in Calm     44 % 0.00 in
19:06 75.0 °F 53.4 °F 29.74 in Calm     47 % 0.00 in
19:11 74.3 °F 53.9 °F 29.75 in Calm     49 % 0.00 in
19:16 73.7 °F 54.4 °F 29.75 in Calm     51 % 0.00 in
19:21 72.9 °F 54.2 °F 29.75 in Calm     52 % 0.00 in
19:26 72.5 °F 54.9 °F 29.75 in Calm     54 % 0.00 in
19:31 72.3 °F 54.2 °F 29.75 in Calm     53 % 0.00 in
19:36 72.0 °F 53.4 °F 29.75 in Calm     52 % 0.00 in
19:41 71.7 °F 54.2 °F 29.75 in Calm     54 % 0.00 in
19:46 71.4 °F 53.9 °F 29.75 in Calm     54 % 0.00 in
19:51 71.1 °F 54.1 °F 29.75 in Calm     55 % 0.00 in
19:56 70.8 °F 54.3 °F 29.75 in Calm     56 % 0.00 in
20:01 70.5 °F 54.0 °F 29.75 in Calm     56 % 0.00 in
20:06 70.3 °F 54.3 °F 29.75 in Calm     57 % 0.00 in
20:11 69.9 °F 54.4 °F 29.75 in Calm     58 % 0.00 in
20:16 69.7 °F 54.7 °F 29.75 in Calm     59 % 0.00 in
20:20 69.4 °F 54.4 °F 29.75 in Calm     59 % 0.00 in
20:22 69.4 °F 54.9 °F 29.75 in Calm     60 % 0.00 in
20:25 69.3 °F 54.8 °F 29.75 in Calm     60 % 0.00 in
20:28 69.3 °F 54.8 °F 29.75 in Calm     60 % 0.00 in
20:33 69.2 °F 55.2 °F 29.76 in Calm     61 % 0.00 in
20:38 69.0 °F 54.5 °F 29.76 in Calm     60 % 0.00 in
20:43 68.8 °F 55.7 °F 29.76 in Calm     63 % 0.00 in
20:48 68.6 °F 55.5 °F 29.76 in Calm     63 % 0.00 in
20:53 68.4 °F 56.2 °F 29.76 in Calm     65 % 0.00 in
20:58 68.1 °F 56.3 °F 29.76 in Calm     66 % 0.00 in
21:03 67.6 °F 56.7 °F 29.76 in Calm     68 % 0.00 in
21:08 67.0 °F 55.7 °F 29.76 in Calm     67 % 0.00 in
21:13 66.8 °F 55.5 °F 29.76 in Calm     67 % 0.00 in
21:23 66.3 °F 55.0 °F 29.76 in Calm     67 % 0.00 in
21:28 66.3 °F 55.0 °F 29.76 in Calm     67 % 0.00 in
21:33 66.4 °F 55.9 °F 29.76 in Calm     69 % 0.00 in
21:38 66.3 °F 55.8 °F 29.76 in Calm     69 % 0.00 in
21:43 65.8 °F 55.3 °F 29.76 in Calm   0.2 mph 69 % 0.00 in
21:53 65.0 °F 55.4 °F 29.76 in Calm     71 % 0.00 in
22:03 64.7 °F 55.5 °F 29.76 in Calm     72 % 0.00 in
22:08 64.6 °F 55.4 °F 29.76 in Calm     72 % 0.00 in
22:13 64.6 °F 54.6 °F 29.76 in Calm     70 % 0.00 in
22:18 64.7 °F 54.7 °F 29.76 in Calm     70 % 0.00 in
22:23 64.7 °F 54.3 °F 29.76 in North 1.2 mph   69 % 0.00 in
22:28 64.8 °F 54.0 °F 29.76 in Calm     68 % 0.00 in
22:33 64.9 °F 54.9 °F 29.76 in Calm     70 % 0.00 in
22:38 64.5 °F 54.9 °F 29.77 in Calm     71 % 0.00 in
22:43 64.2 °F 55.4 °F 29.77 in Calm     73 % 0.00 in
22:48 63.9 °F 54.7 °F 29.77 in Calm     72 % 0.00 in
22:53 63.9 °F 55.1 °F 29.77 in Calm     73 % 0.00 in
22:58 64.0 °F 55.2 °F 29.77 in Calm     73 % 0.00 in
23:03 64.3 °F 55.5 °F 29.77 in Calm     73 % 0.00 in
23:08 64.6 °F 56.1 °F 29.77 in Calm     74 % 0.00 in
23:13 64.8 °F 55.9 °F 29.77 in Calm     73 % 0.00 in
23:18 64.9 °F 56.0 °F 29.77 in Calm     73 % 0.00 in
23:23 64.9 °F 56.0 °F 29.77 in Calm     73 % 0.00 in
23:28 65.0 °F 56.1 °F 29.77 in Calm     73 % 0.00 in
23:33 65.1 °F 56.6 °F 29.77 in Calm     74 % 0.00 in
23:38 65.5 °F 56.6 °F 29.77 in Calm     73 % 0.00 in
23:43 65.8 °F 56.9 °F 29.77 in Calm     73 % 0.00 in
23:49 66.0 °F 57.1 °F 29.77 in North 1.2 mph 1.2 mph 73 % 0.00 in
23:54 66.0 °F 57.1 °F 29.77 in Calm   0.1 mph 73 % 0.00 in
23:59 66.0 °F 57.5 °F 29.77 in Calm     74 % 0.00 in
Park Place, Exeter, Tulare County, California, USA
Compliments of Weather Underground - 2.75 mb